首页
METAR-TAF:

METAR-TAF

机场 :

太原武宿国际机场

太原, 中华人民共和国

纬度: 37-47N, 经度: 112-33E, 海拔: 779米

当前天气观测

该预报发布于37分钟前的07:30 UTC
风速16节,风向西转西北
温度 22°C
湿度 19%
气压 1016 hPa
能见度10公里或以上
1500米以下无云,无积雨云

METAR: ZBYN 220730Z 29008MPS CAVOK 22/M03 Q1016 NOSIG

时间: 16:07 (08:07 UTC)

预报

该预报发布于4小时和56分钟前的03:11 UTC
预报有效从22日的 06点(UTC)到 23日的 06点(UTC)
风速17节,风向西转西北,有时为33节阵风
能見度: 6000

TAF: ZBYN 220311Z 2206/2306 30009G17MPS 6000 NSC TX21/2207Z TN06/2222Z

超过4000个机场的气象观测和天气预报(METAR&TAF报告)。

可查询的气象台以黄色和红色小点在地图上表示。

将鼠标移到小点上方,可查看气象台名称。

然后点击查看天气观测和预报。

如需切换地图:点击带黑十字的绿色按钮放大地图;点击带横线的绿色按钮缩小地图;或者点击绿色箭头查看邻近地区的地图。


METAR-TAF: